Weather at Yeşilyurt helipad

Public forecast

Using degrees Celsius for public forecast. Weather courtesy of forecast.io.

Closest aviation weather report (METAR) to Yeşilyurt helipad

Closest report is Nicosia (Lefkoşa) Ercan International Airport, 30.3 nm (56.2 km) E.

2024/07/25 17:50 (retrieved 32 minutes ago)

LCEN 251750Z 33008KT 9999 FEW025 28/24 Q1000 NOSIG RMK RWY11R 36006KT RWY29R 35006KT RWY11L 01006KT

Closest aviation forecast (TAF) to Yeşilyurt helipad

Closest forecast is Nicosia (Lefkoşa) Ercan International Airport, 30.3 nm (56.2 km) E.

2024/07/25 18:04 (retrieved 18 minutes ago)

TAF LCEN 251640Z 2518/2618 28010KT 9999 FEW030 BECMG 2607/2610 35012KT